Latest Weather Observations for Bulman

IDD60801

Issued at 9:11 pm CST Tuesday 4 August 2020 (issued every 10 minutes, with the page automatically refreshed every 10 minutes)

About weather observations | Map of weather stations | Latest weather observations for NT | Other Formats
Station Details ID: 014627 Name: BULMAN Lat: -13.67 Lon: 134.34 Height: 103.4 m
Data from the previous 72 hours. | See also: Recent months at Bulman
Date/Time
CST
Temp
°C
App
Temp
°C
Dew
Point
°C
Rel
Hum
%
Delta-T
°C
Wind Press
QNH
hPa
Press
MSL
hPa
Rain since
9am
mm
Dir  Spd
km/h
Gust
km/h
Spd
kts
Gust
kts
04/09:00pm 25.7 24.2 13.2 46 7.3 ESE 13 24 7 13 1011.7 1011.2 0.0
04/08:30pm 26.2 23.6 10.8 38 8.7 ESE 15 30 8 16 1011.2 1010.7 0.0
04/08:00pm 24.9 24.7 9.2 37 8.6 CALM 0 6 0 3 1010.5 1010.0 0.0
04/07:30pm 26.1 25.4 8.6 33 9.5 SE 2 6 1 3 1009.9 1009.4 0.0
04/07:00pm 28.0 26.5 8.3 29 10.8 SE 6 7 3 4 1009.7 1009.2 0.0
04/06:30pm 29.6 27.8 8.1 26 11.8 SE 7 11 4 6 1009.5 1009.0 0.0
04/06:00pm 30.8 28.6 7.9 24 12.6 SE 9 13 5 7 1009.3 1008.8 0.0
04/05:30pm 31.6 28.8 8.6 24 12.9 SE 13 17 7 9 1009.2 1008.7 0.0
04/05:00pm 32.2 30.1 8.4 23 13.3 S 9 19 5 10 1009.1 1008.6 0.0
04/04:30pm 32.4 30.4 8.6 23 13.4 E 9 20 5 11 1009.1 1008.6 0.0
04/04:00pm 32.2 29.2 7.8 22 13.5 ESE 13 22 7 12 1009.2 1008.7 0.0
04/03:30pm 32.2 29.4 8.4 23 13.3 SE 13 22 7 12 1009.2 1008.7 0.0
04/03:00pm 32.7 30.4 8.9 23 13.5 ESE 11 20 6 11 1009.5 1009.0 0.0
04/02:30pm 32.1 28.9 8.4 23 13.3 SE 15 24 8 13 1009.9 1009.4 0.0
04/02:00pm 32.5 30.5 8.7 23 13.4 ESE 9 20 5 11 1010.3 1009.8 0.0
04/01:30pm 31.9 28.9 9.4 25 12.8 ESE 15 24 8 13 1010.9 1010.4 0.0
04/01:00pm 32.0 29.4 9.5 25 12.8 E 13 26 7 14 1011.4 1010.9 0.0
04/12:30pm 32.4 31.0 11.0 27 12.5 E 9 22 5 12 1011.9 1011.4 0.0
04/12:00pm 30.3 28.8 11.8 32 10.8 SSE 11 24 6 13 1012.4 1011.9 0.0
04/11:30am 30.0 28.9 12.0 33 10.6 SE 9 20 5 11 1012.9 1012.4 0.0
04/11:00am 28.7 29.0 14.5 42 8.6 ESE 6 15 3 8 1013.5 1013.1 0.0
04/10:30am 27.6 28.1 14.9 45 7.7 NE 6 9 3 5 1013.8 1013.4 0.0
04/10:00am 26.4 27.0 15.4 50 6.7 E 6 13 3 7 1014.0 1013.6 0.0
04/09:30am 24.8 26.9 17.3 63 4.7 NW 2 7 1 4 1014.2 1013.8 0.0
04/09:00am 23.4 25.8 16.9 67 4.0 CALM 0 6 0 3 1014.1 1013.7 0.0
04/08:30am 21.6 23.4 15.4 68 3.7 CALM 0 0 0 0 1013.8 1013.4 0.0
04/08:00am 18.8 20.3 14.7 77 2.4 CALM 0 0 0 0 1013.7 1013.3 0.0
04/07:30am 17.2 18.6 14.3 83 1.7 CALM 0 0 0 0 1013.5 1013.1 0.0
04/07:00am 16.1 17.2 13.6 85 1.4 CALM 0 0 0 0 1013.1 1012.6 0.0
04/06:30am 15.9 16.8 13.0 83 1.6 CALM 0 0 0 0 1012.7 1012.2 0.0
04/06:00am 16.0 16.9 12.9 82 1.7 CALM 0 0 0 0 1012.1 1011.6 0.0
04/05:30am 16.4 17.4 13.1 81 1.9 CALM 0 0 0 0 1011.8 1011.3 0.0
04/05:00am 16.8 17.9 13.5 81 1.9 CALM 0 0 0 0 1011.8 1011.3 0.0
04/04:30am 17.1 18.3 13.8 81 1.9 CALM 0 0 0 0 1011.8 1011.3 0.0
04/04:00am 17.3 18.5 13.8 80 2.0 CALM 0 0 0 0 1011.9 1011.4 0.0
04/03:30am 17.4 18.4 13.3 77 2.3 CALM 0 0 0 0 1012.1 1011.6 0.0
04/03:00am 17.8 18.8 13.3 75 2.5 CALM 0 0 0 0 1012.2 1011.7 0.0
04/02:30am 18.2 19.4 13.7 75 2.6 CALM 0 0 0 0 1012.5 1012.0 0.0
04/02:00am 18.8 20.0 13.9 73 2.8 CALM 0 0 0 0 1012.7 1012.2 0.0
04/01:30am 19.6 20.9 14.2 71 3.1 CALM 0 0 0 0 1012.9 1012.4 0.0
04/01:00am 20.1 21.4 14.2 69 3.4 CALM 0 0 0 0 1013.2 1012.8 0.0
04/12:30am 20.7 22.0 14.1 66 3.8 CALM 0 0 0 0 1013.4 1013.0 0.0
04/12:00am 21.2 22.5 14.1 64 4.1 CALM 0 0 0 0 1013.4 1013.0 0.0
 
Date/Time
CST
Temp
°C
App
Temp
°C
Dew
Point
°C
Rel
Hum
%
Delta-T
°C
Wind Press
QNH
hPa
Press
MSL
hPa
Rain since
9am
mm
Dir  Spd
km/h
Gust
km/h
Spd
kts
Gust
kts
03/11:30pm 21.7 22.8 13.6 60 4.7 CALM 0 0 0 0 1013.3 1012.9 0.0
03/11:00pm 23.4 24.3 15.2 60 4.9 ENE 4 11 2 6 1013.3 1012.9 0.0
03/10:30pm 22.6 23.8 13.7 57 5.2 CALM 0 0 0 0 1013.0 1012.5 0.0
03/10:00pm 23.8 24.9 13.6 52 6.0 CALM 0 6 0 3 1012.8 1012.3 0.0
03/09:30pm 24.8 24.7 14.0 51 6.4 ESE 7 13 4 7 1012.7 1012.2 0.0
03/09:00pm 25.4 24.9 13.9 49 6.8 SE 9 17 5 9 1012.3 1011.8 0.0
03/08:30pm 26.1 24.9 13.9 47 7.3 ESE 13 24 7 13 1012.0 1011.5 0.0
03/08:00pm 26.5 24.9 12.9 43 8.0 ESE 13 22 7 12 1011.4 1010.9 0.0
03/07:30pm 26.4 25.8 10.5 37 9.0 SE 4 9 2 5 1010.7 1010.2 0.0
03/07:00pm 28.0 27.7 10.2 33 10.0 ENE 2 6 1 3 1010.2 1009.7 0.0
03/06:30pm 29.5 28.4 10.6 31 10.8 E 7 13 4 7 1010.0 1009.5 0.0
03/06:00pm 30.5 28.6 10.5 29 11.5 ESE 11 19 6 10 1009.7 1009.2 0.0
03/05:30pm 31.4 29.4 10.2 27 12.2 ESE 11 17 6 9 1009.6 1009.1 0.0
03/05:00pm 31.9 31.4 10.6 27 12.3 NNE 4 11 2 6 1009.5 1009.0 0.0
03/04:30pm 31.0 29.5 10.4 28 11.8 NE 9 17 5 9 1009.6 1009.1 0.0
03/04:00pm 32.0 29.4 9.5 25 12.8 ENE 13 20 7 11 1009.6 1009.1 0.0
03/03:30pm 32.3 31.5 10.9 27 12.5 SSW 6 9 3 5 1009.7 1009.2 0.0
03/03:00pm 32.2 30.2 10.3 26 12.6 E 11 20 6 11 1010.1 1009.6 0.0
03/02:30pm 30.8 28.8 10.2 28 11.8 E 11 20 6 11 1010.8 1010.3 0.0
03/02:00pm 31.9 30.4 10.6 27 12.3 E 9 15 5 8 1011.4 1010.9 0.0
03/01:30pm 32.6 30.3 10.6 26 12.8 ENE 13 22 7 12 1011.8 1011.3 0.0
03/01:00pm 31.6 30.3 11.4 29 11.8 NE 9 19 5 10 1012.2 1011.7 0.0
03/12:30pm 30.5 28.9 11.5 31 11.1 ESE 11 17 6 9 1012.7 1012.2 0.0
03/12:00pm 30.7 29.8 12.6 33 10.7 ESE 9 19 5 10 1013.3 1012.9 0.0
03/11:30am 29.9 29.5 14.0 37 9.6 ESE 9 20 5 11 1013.8 1013.4 0.0
03/11:00am 28.5 27.8 15.4 45 8.0 E 13 20 7 11 1014.3 1013.9 0.0
03/10:30am 27.7 27.2 15.0 45 7.7 ESE 11 17 6 9 1014.8 1014.4 0.0
03/10:00am 26.4 26.9 16.6 55 6.1 E 9 15 5 8 1015.2 1014.8 0.0
03/09:30am 25.2 25.2 17.1 60 5.0 E 13 17 7 9 1015.2 1014.8 0.0
03/09:00am 23.1 24.0 17.6 71 3.4 SE 9 13 5 7 1015.3 1014.9 0.0
03/08:30am 22.3 23.7 17.9 76 2.7 ESE 7 13 4 7 1014.9 1014.5 0.0
03/08:00am 20.9 24.0 18.7 87 1.4 CALM 0 0 0 0 1014.6 1014.2 0.0
03/07:30am 17.4 19.3 15.7 90 1.0 CALM 0 0 0 0 1014.4 1014.0 0.0
03/07:00am 16.4 17.9 14.6 89 1.0 CALM 0 0 0 0 1014.0 1013.6 0.0
03/06:30am 16.5 17.9 14.5 88 1.1 CALM 0 0 0 0 1013.9 1013.5 0.0
03/06:00am 16.9 18.3 14.5 86 1.4 CALM 0 0 0 0 1013.9 1013.5 0.0
03/05:30am 17.1 18.6 14.7 86 1.4 CALM 0 0 0 0 1013.9 1013.5 0.0
03/05:00am 17.3 18.9 14.9 86 1.4 CALM 0 0 0 0 1013.6 1013.2 0.0
03/04:30am 17.9 19.6 15.3 85 1.5 CALM 0 0 0 0 1013.5 1013.1 0.0
03/04:00am 18.2 20.0 15.6 85 1.5 CALM 0 0 0 0 1013.1 1012.6 0.0
03/03:30am 18.7 20.7 15.9 84 1.7 CALM 0 0 0 0 1013.2 1012.8 0.0
03/03:00am 19.3 21.4 16.2 82 1.9 CALM 0 0 0 0 1013.3 1012.9 0.0
03/02:30am 19.9 22.0 16.3 80 2.2 CALM 0 0 0 0 1013.6 1013.2 0.0
03/02:00am 20.6 22.5 16.8 79 2.3 SE 2 6 1 3 1013.8 1013.4 0.0
03/01:30am 21.2 22.5 17.2 78 2.5 SE 6 9 3 5 1014.0 1013.6 0.0
03/01:00am 21.4 22.7 17.0 76 2.7 SE 6 9 3 5 1014.2 1013.8 0.0
03/12:30am 21.6 22.7 17.0 75 2.8 SE 7 11 4 6 1014.3 1013.9 0.0
03/12:00am 21.9 23.1 16.8 73 3.1 SE 6 11 3 6 1014.4 1014.0 0.0
 
Date/Time
CST
Temp
°C
App
Temp
°C
Dew
Point
°C
Rel
Hum
%
Delta-T
°C
Wind Press
QNH
hPa
Press
MSL
hPa
Rain since
9am
mm
Dir  Spd
km/h
Gust
km/h
Spd
kts
Gust
kts
02/11:30pm 22.3 23.4 17.0 72 3.3 ESE 7 13 4 7 1014.4 1014.0 0.0
02/11:00pm 22.4 23.0 16.9 71 3.4 ESE 9 13 5 7 1014.2 1013.8 0.0
02/10:30pm 22.9 23.3 16.4 67 4.0 SE 9 15 5 8 1014.2 1013.8 0.0
02/10:00pm 23.4 23.8 16.2 64 4.4 SE 9 17 5 9 1014.2 1013.8 0.0
02/09:30pm 24.0 24.0 16.3 62 4.7 ESE 11 20 6 11 1013.8 1013.4 0.0
02/09:00pm 24.4 23.9 15.9 59 5.2 ESE 13 20 7 11 1013.5 1013.1 0.0
02/08:30pm 25.0 24.3 15.3 55 5.9 SE 13 19 7 10 1013.0 1012.5 0.0
02/08:00pm 25.7 24.2 15.4 53 6.3 ESE 17 30 9 16 1012.6 1012.1 0.0
02/07:30pm 26.7 25.3 14.5 47 7.3 ESE 15 26 8 14 1012.1 1011.6 0.0
02/07:00pm 27.7 25.8 12.9 40 8.7 ESE 15 24 8 13 1011.7 1011.2 0.0
02/06:30pm 28.4 26.8 11.5 35 9.8 E 11 17 6 9 1011.4 1010.9 0.0
02/06:00pm 29.6 27.6 10.2 30 11.0 E 11 19 6 10 1011.3 1010.8 0.0
02/05:30pm 30.4 27.8 9.3 27 11.9 E 13 20 7 11 1011.2 1010.7 0.0
02/05:00pm 31.0 28.2 8.7 25 12.5 ENE 13 20 7 11 1011.0 1010.5 0.0
02/04:30pm 31.4 29.1 9.0 25 12.6 ENE 11 19 6 10 1010.8 1010.3 0.0
02/04:00pm 31.3 29.4 8.9 25 12.6 E 9 17 5 9 1010.6 1010.1 0.0
02/03:30pm 31.1 28.1 7.5 23 12.9 SE 13 20 7 11 1010.7 1010.2 0.0
02/03:00pm 31.4 29.0 7.1 22 13.3 ENE 9 19 5 10 1011.0 1010.5 0.0
02/02:30pm 31.0 27.6 6.1 21 13.3 ESE 13 24 7 13 1011.4 1010.9 0.0
02/02:00pm 30.6 27.7 6.5 22 13.0 E 11 20 6 11 1012.0 1011.5 0.0
02/01:30pm 29.8 26.5 6.5 23 12.5 E 13 20 7 11 1012.6 1012.1 0.0
02/01:00pm 30.1 27.4 7.3 24 12.4 E 11 20 6 11 1013.3 1012.9 0.0
02/12:30pm 29.0 25.8 7.0 25 11.8 E 13 24 7 13 1014.0 1013.6 0.0
02/12:00pm 28.9 25.7 8.6 28 11.2 ESE 15 28 8 15 1014.7 1014.3 0.0
02/11:30am 27.7 24.8 8.1 29 10.6 ESE 13 20 7 11 1015.2 1014.8 0.0
02/11:00am 26.6 23.6 7.6 30 10.2 ESE 13 24 7 13 1015.9 1015.5 0.0
02/10:30am 25.9 23.0 8.0 32 9.6 E 13 17 7 9 1016.2 1015.8 0.0
02/10:00am 24.3 22.6 11.3 44 7.3 ESE 11 19 6 10 1016.6 1016.1 0.0
02/09:30am 22.4 21.4 13.5 57 5.2 SE 11 15 6 8 1016.7 1016.2 0.0
02/09:00am 21.0 21.7 16.0 73 3.0 SE 7 11 4 6 1016.6 1016.1 0.0
02/08:30am 19.3 20.0 16.2 82 1.9 E 7 9 4 5 1016.5 1016.0 0.0
02/08:00am 17.9 18.6 16.2 90 1.0 SE 7 9 4 5 1016.6 1016.1 0.0
02/07:30am 17.5 18.2 16.2 92 0.8 SSE 7 9 4 5 1016.1 1015.7 0.0
02/07:00am 17.3 18.9 16.8 97 0.3 SE 4 7 2 4 1015.8 1015.4 0.0
02/06:30am 15.4 16.6 13.8 90 0.9 CALM 0 0 0 0 1015.5 1015.1 0.0
02/06:00am 15.9 17.1 13.7 87 1.2 CALM 0 7 0 4 1015.5 1015.1 0.0
02/05:30am 16.6 17.2 15.8 95 0.5 SSW 7 9 4 5 1015.3 1014.9 0.0
02/05:00am 15.2 16.4 13.7 91 0.8 CALM 0 0 0 0 1015.3 1014.9 0.0
02/04:30am 15.5 16.8 14.0 91 0.8 CALM 0 0 0 0 1015.2 1014.8 0.0
02/04:00am 15.9 17.2 14.1 89 1.0 CALM 0 0 0 0 1015.4 1015.0 0.0
02/03:30am 16.7 18.3 14.9 89 1.0 CALM 0 0 0 0 1015.4 1015.0 0.0
02/03:00am 17.7 19.7 15.9 89 1.1 CALM 0 0 0 0 1015.5 1015.1 0.0
02/02:30am 18.1 19.0 16.1 88 1.2 SSE 6 7 3 4 1015.7 1015.3 0.0
02/02:00am 18.8 20.0 16.8 88 1.2 SSE 6 7 3 4 1015.6 1015.2 0.0
02/01:30am 19.0 20.2 16.8 87 1.3 SE 6 7 3 4 1015.7 1015.3 0.0
02/01:00am 19.0 19.9 16.2 84 1.7 SE 6 9 3 5 1015.8 1015.4 0.0
02/12:30am 19.5 21.3 16.5 83 1.8 ESE 2 9 1 5 1015.8 1015.4 0.0
02/12:00am 20.0 21.3 16.2 79 2.3 SE 4 9 2 5 1015.9 1015.5 0.0
 
Date/Time
CST
Temp
°C
App
Temp
°C
Dew
Point
°C
Rel
Hum
%
Delta-T
°C
Wind Press
QNH
hPa
Press
MSL
hPa
Rain since
9am
mm
Dir  Spd
km/h
Gust
km/h
Spd
kts
Gust
kts
01/11:30pm 20.4 20.8 15.4 73 3.0 ESE 7 9 4 5 1016.0 1015.6 0.0
01/11:00pm 20.8 20.9 14.5 67 3.7 SE 7 11 4 6 1015.8 1015.4 0.0
01/10:30pm 21.2 20.7 12.6 58 4.9 SE 7 11 4 6 1015.8 1015.4 0.0
01/10:00pm 21.8 20.9 11.5 52 5.8 SE 7 9 4 5 1015.7 1015.3 0.0
01/09:30pm 21.7 20.5 7.9 41 7.2 SSE 4 7 2 4 1015.4 1015.0 0.0

Other formats

Comma delimited format used in spreadsheet applications
http://www.bom.gov.au/fwo/IDD60801/IDD60801.94143.axf

JavaScript Object Notation format (JSON) in row-major order
http://www.bom.gov.au/fwo/IDD60801/IDD60801.94143.json

Data quality

Most of these data are generated automatically and are frequently updated. Quality checks on data are not normally performed. It is possible for incorrect values to appear. Refer to information at About Latest Weather Observations and please check the disclaimer before using these data.